Time;durP1;ratioP1;P1;durP2;ratioP2;P2;SDS_P1;SDS_P2;PMS_P1;PMS_P2;Temp;Humidity;BMP_temperature;BMP_pressure;BME280_temperature;BME280_humidity;BME280_pressure;Samples;Min_cycle;Max_cycle;Signal;HPM_P1;HPM_P2
2022/04/13 00:00:28;;;;;;;4.60;3.57;;;;;;;12.69;82.21;97833.16;5073822;28;20216;-63
2022/04/13 00:02:56;;;;;;;6.90;4.80;;;;;;;12.67;82.52;97835.09;5073449;28;20758;-63
2022/04/13 00:05:23;;;;;;;5.23;4.40;;;;;;;12.59;82.75;97822.47;5073707;28;20212;-62
2022/04/13 00:07:50;;;;;;;5.63;4.30;;;;;;;12.54;83.46;97829.13;5073503;28;20219;-62
2022/04/13 00:10:16;;;;;;;6.40;4.77;;;;;;;12.51;83.49;97834.66;5073736;28;20239;-62
2022/04/13 00:12:43;;;;;;;4.67;4.13;;;;;;;12.46;83.24;97831.56;5073196;28;20726;-62
2022/04/13 00:15:10;;;;;;;4.17;3.77;;;;;;;12.39;83.19;97830.34;5062642;28;20227;-62
2022/04/13 00:17:38;;;;;;;5.20;4.23;;;;;;;12.36;83.25;97826.13;5073159;28;20215;-61
2022/04/13 00:20:07;;;;;;;4.33;3.70;;;;;;;12.33;82.88;97820.25;5071505;28;20207;-62
2022/04/13 00:22:34;;;;;;;7.10;4.60;;;;;;;12.26;83.38;97824.34;5072991;28;20219;-62
2022/04/13 00:25:00;;;;;;;4.93;4.40;;;;;;;12.19;85.33;97828.47;5073206;28;20587;-61
2022/04/13 00:27:27;;;;;;;5.50;4.17;;;;;;;12.04;86.80;97829.72;5073279;28;20226;-62
2022/04/13 00:29:53;;;;;;;6.07;4.57;;;;;;;11.95;86.88;97827.78;5073010;28;20261;-62
2022/04/13 00:32:20;;;;;;;5.43;4.30;;;;;;;11.81;87.85;97834.16;5073280;28;20237;-61
2022/04/13 00:34:47;;;;;;;5.03;4.37;;;;;;;11.75;87.81;97832.00;5073002;28;20706;-62
2022/04/13 00:37:15;;;;;;;4.40;4.00;;;;;;;11.61;89.19;97832.22;5072918;28;20277;-62
2022/04/13 00:39:42;;;;;;;5.33;4.17;;;;;;;11.52;90.25;97835.59;5072868;28;20217;-62
2022/04/13 00:42:09;;;;;;;6.90;4.47;;;;;;;11.55;90.13;97832.69;5072954;28;20245;-62
2022/04/13 00:44:35;;;;;;;4.53;4.10;;;;;;;11.43;90.94;97836.28;5071222;28;20219;-62
2022/04/13 00:47:07;;;;;;;6.00;4.47;;;;;;;11.35;92.23;97824.59;5062263;28;20222;-61
2022/04/13 00:49:34;;;;;;;4.70;4.03;;;;;;;11.29;92.87;97830.34;5072674;28;20223;-63
2022/04/13 00:52:03;;;;;;;4.93;4.40;;;;;;;11.21;92.95;97823.03;5072791;28;20695;-62
2022/04/13 00:54:31;;;;;;;6.43;4.20;;;;;;;11.14;93.87;97821.78;5073073;28;20214;-61
2022/04/13 00:56:59;;;;;;;5.40;4.40;;;;;;;11.11;94.53;97826.47;5072968;28;20215;-61
2022/04/13 00:59:26;;;;;;;4.47;4.03;;;;;;;11.13;93.69;97824.56;5067487;28;20216;-61
2022/04/13 01:01:56;;;;;;;4.93;4.30;;;;;;;11.18;92.80;97822.41;5058374;28;20235;-63
2022/04/13 01:04:23;;;;;;;5.10;4.30;;;;;;;11.20;92.62;97829.25;5061354;28;20220;-61
2022/04/13 01:06:50;;;;;;;5.07;4.27;;;;;;;11.20;92.72;97831.06;5060494;28;20210;-61
2022/04/13 01:09:18;;;;;;;6.13;4.50;;;;;;;11.23;91.86;97826.38;5058391;28;20213;-61
2022/04/13 01:11:46;;;;;;;6.43;4.70;;;;;;;11.32;90.16;97827.50;5056721;28;20323;-61
2022/04/13 01:14:13;;;;;;;6.43;4.90;;;;;;;11.31;90.72;97826.63;5072146;28;20209;-61
2022/04/13 01:16:39;;;;;;;6.63;4.90;;;;;;;11.24;91.48;97821.91;5072782;28;20561;-61
2022/04/13 01:19:07;;;;;;;5.90;4.80;;;;;;;11.16;92.03;97832.25;5072491;28;20211;-61
2022/04/13 01:21:41;;;;;;;5.53;4.50;;;;;;;11.14;92.39;97842.13;5072783;28;20218;-61
2022/04/13 01:24:10;;;;;;;8.00;5.20;;;;;;;11.01;93.21;97836.91;5068015;28;20216;-61
2022/04/13 01:26:36;;;;;;;7.87;5.37;;;;;;;11.05;93.77;97848.09;5072734;28;20217;-62
2022/04/13 01:29:03;;;;;;;8.73;5.80;;;;;;;11.00;95.02;97855.56;5072606;28;20601;-62
2022/04/13 01:31:30;;;;;;;7.00;5.13;;;;;;;11.10;94.86;97856.53;5072386;28;20688;-62
2022/04/13 01:33:57;;;;;;;6.17;4.73;;;;;;;11.15;94.15;97859.66;5072581;28;20605;-62
2022/04/13 01:36:24;;;;;;;6.07;4.53;;;;;;;11.11;94.59;97858.22;5072229;28;20219;-61
2022/04/13 01:38:50;;;;;;;6.43;5.67;;;;;;;10.96;95.52;97864.66;5071131;28;20212;-62
2022/04/13 01:41:18;;;;;;;7.37;5.50;;;;;;;11.00;95.27;97863.47;5074647;28;20247;-62
2022/04/13 01:43:45;;;;;;;6.30;5.13;;;;;;;11.02;94.52;97872.97;5076242;28;20238;-62
2022/04/13 01:46:11;;;;;;;6.53;5.00;;;;;;;11.04;94.21;97867.56;5076300;28;20231;-61
2022/04/13 01:48:38;;;;;;;6.00;4.67;;;;;;;10.99;94.78;97869.69;5075970;28;20211;-63
2022/04/13 01:51:04;;;;;;;6.53;5.30;;;;;;;10.93;95.17;97865.72;5075910;28;20215;-61
2022/04/13 01:53:31;;;;;;;6.37;5.50;;;;;;;10.91;94.80;97861.50;5075849;28;20239;-62
2022/04/13 01:55:58;;;;;;;6.73;5.30;;;;;;;10.88;95.69;97867.03;5076159;28;20219;-61
2022/04/13 01:58:26;;;;;;;8.77;5.17;;;;;;;10.78;96.89;97871.31;5076071;28;20219;-62
2022/04/13 02:00:54;;;;;;;7.17;5.53;;;;;;;10.82;96.34;97872.78;5075920;28;20218;-62
2022/04/13 02:03:21;;;;;;;6.53;5.00;;;;;;;10.86;95.39;97879.50;5074365;28;20269;-61
2022/04/13 02:05:48;;;;;;;6.70;5.30;;;;;;;10.93;94.11;97875.44;5075589;28;20272;-61
2022/04/13 02:08:15;;;;;;;6.87;5.40;;;;;;;10.99;93.37;97875.00;5075887;28;20215;-61
2022/04/13 02:10:41;;;;;;;7.70;5.27;;;;;;;10.91;94.88;97880.03;5075811;28;20389;-61
2022/04/13 02:13:08;;;;;;;6.93;5.70;;;;;;;10.90;94.94;97886.28;5075470;28;20709;-61
2022/04/13 02:15:36;;;;;;;5.97;5.13;;;;;;;10.92;93.78;97881.69;5075809;28;20216;-62
2022/04/13 02:18:03;;;;;;;6.03;5.40;;;;;;;10.81;93.98;97876.34;5075480;28;20227;-62
2022/04/13 02:20:29;;;;;;;6.90;5.63;;;;;;;10.66;95.56;97888.09;5075635;28;20208;-62
2022/04/13 02:22:56;;;;;;;7.03;5.37;;;;;;;10.50;97.26;97887.50;5075285;28;20221;-62
2022/04/13 02:25:22;;;;;;;8.60;5.30;;;;;;;10.40;98.81;97886.50;5075333;28;20218;-62
2022/04/13 02:27:49;;;;;;;6.87;5.27;;;;;;;10.38;99.69;97883.09;5075375;28;20212;-62
2022/04/13 02:30:16;;;;;;;6.77;5.37;;;;;;;10.39;98.89;97890.09;5073977;28;20567;-62
2022/04/13 02:32:44;;;;;;;8.67;5.83;;;;;;;10.39;98.53;97890.09;5075226;28;20712;-61
2022/04/13 02:35:11;;;;;;;8.70;5.60;;;;;;;10.34;99.12;97892.22;5075213;28;20257;-61
2022/04/13 02:37:38;;;;;;;7.00;5.80;;;;;;;10.25;100.00;97887.59;5075594;28;20211;-62
2022/04/13 02:40:06;;;;;;;8.80;6.10;;;;;;;10.20;100.00;97889.72;5075178;28;20226;-62
2022/04/13 02:42:33;;;;;;;7.33;5.57;;;;;;;10.15;100.00;97882.13;5075506;28;20293;-61
2022/04/13 02:45:00;;;;;;;6.87;5.80;;;;;;;10.07;100.00;97886.25;5066406;28;20218;-62
2022/04/13 02:47:27;;;;;;;6.70;5.33;;;;;;;10.02;100.00;97885.69;5075132;28;20211;-61
2022/04/13 02:49:54;;;;;;;7.63;5.73;;;;;;;10.00;100.00;97898.16;5075134;28;20203;-62
2022/04/13 02:52:21;;;;;;;6.17;5.43;;;;;;;9.98;100.00;97894.81;5074649;28;20253;-62
2022/04/13 02:54:47;;;;;;;8.03;5.57;;;;;;;9.94;100.00;97898.59;5073476;28;20516;-61
2022/04/13 02:57:14;;;;;;;9.63;6.57;;;;;;;9.89;100.00;97895.44;5064526;28;20222;-63
2022/04/13 02:59:42;;;;;;;7.90;6.13;;;;;;;9.90;100.00;97897.16;5075048;28;20571;-61
2022/04/13 03:02:09;;;;;;;9.13;6.50;;;;;;;9.86;100.00;97895.66;5074537;28;20219;-61
2022/04/13 03:04:35;;;;;;;7.27;5.53;;;;;;;9.83;100.00;97893.22;5074515;28;20673;-61
2022/04/13 03:07:03;;;;;;;8.33;6.27;;;;;;;9.80;100.00;97888.19;5074421;28;20218;-61
2022/04/13 03:09:30;;;;;;;7.00;5.67;;;;;;;9.77;100.00;97896.28;5074698;28;20222;-61
2022/04/13 03:11:56;;;;;;;9.13;6.60;;;;;;;9.78;100.00;97892.72;5074690;28;20283;-62
2022/04/13 03:14:23;;;;;;;9.13;6.77;;;;;;;9.82;100.00;97888.91;5074690;28;20602;-61
2022/04/13 03:16:50;;;;;;;9.40;7.00;;;;;;;9.86;100.00;97893.03;5074691;28;20624;-63
2022/04/13 03:19:16;;;;;;;9.13;6.50;;;;;;;9.85;100.00;97899.25;5074447;28;20573;-61
2022/04/13 03:21:42;;;;;;;7.67;6.47;;;;;;;9.83;100.00;97890.59;5073030;28;20225;-62
2022/04/13 03:24:10;;;;;;;8.20;6.30;;;;;;;9.76;100.00;97894.59;5074513;28;20220;-62
2022/04/13 03:26:37;;;;;;;6.57;5.83;;;;;;;9.74;100.00;97896.53;5074391;28;20219;-62
2022/04/13 03:29:03;;;;;;;8.13;6.70;;;;;;;9.63;100.00;97909.59;5074457;28;20223;-61
2022/04/13 03:31:30;;;;;;;9.37;6.50;;;;;;;9.70;100.00;97895.03;5074434;28;20211;-61
2022/04/13 03:33:56;;;;;;;7.93;6.60;;;;;;;9.68;100.00;97892.50;5068831;28;20237;-62
2022/04/13 03:36:22;;;;;;;7.27;6.00;;;;;;;9.67;100.00;97895.25;5074298;28;20211;-62
2022/04/13 03:38:49;;;;;;;8.50;6.63;;;;;;;9.65;100.00;97898.00;5073696;28;20219;-62
2022/04/13 03:41:17;;;;;;;8.20;5.90;;;;;;;9.60;100.00;97896.63;5073610;28;20238;-61
2022/04/13 03:43:44;;;;;;;6.30;5.70;;;;;;;9.54;100.00;97889.16;5073721;28;20222;-62
2022/04/13 03:46:10;;;;;;;7.93;6.13;;;;;;;9.49;100.00;97891.25;5073937;28;20224;-62
2022/04/13 03:48:37;;;;;;;8.17;6.20;;;;;;;9.44;100.00;97888.94;5072339;28;20219;-63
2022/04/13 03:51:04;;;;;;;8.30;5.70;;;;;;;9.41;100.00;97897.03;5073620;28;20212;-61
2022/04/13 03:53:30;;;;;;;7.90;5.90;;;;;;;9.38;100.00;97899.03;5073709;28;20244;-62
2022/04/13 03:55:57;;;;;;;7.13;5.70;;;;;;;9.36;100.00;97901.78;5073423;28;20223;-63
2022/04/13 03:58:27;;;;;;;8.20;6.10;;;;;;;9.37;100.00;97897.38;5072094;28;20219;-62
2022/04/13 04:00:53;;;;;;;8.07;5.50;;;;;;;9.37;100.00;97897.38;5069010;28;20262;-61
2022/04/13 04:03:20;;;;;;;7.47;5.90;;;;;;;9.41;100.00;97896.19;5072691;28;20219;-62
2022/04/13 04:05:46;;;;;;;7.47;6.00;;;;;;;9.42;100.00;97892.63;5073458;28;20230;-62
2022/04/13 04:08:13;;;;;;;7.53;5.60;;;;;;;9.39;100.00;97906.00;5073410;28;20229;-61
2022/04/13 04:10:39;;;;;;;7.63;5.70;;;;;;;9.36;100.00;97904.41;5073586;28;20230;-63
2022/04/13 04:13:06;;;;;;;8.13;6.10;;;;;;;9.36;100.00;97907.06;5071782;28;20231;-63
2022/04/13 04:15:33;;;;;;;6.50;5.43;;;;;;;9.33;100.00;97902.00;5073624;28;20222;-61
2022/04/13 04:18:01;;;;;;;8.40;5.73;;;;;;;9.32;100.00;97899.47;5073557;28;20220;-62
2022/04/13 04:20:28;;;;;;;7.97;5.73;;;;;;;9.33;100.00;97906.41;5073503;28;20215;-61
2022/04/13 04:22:55;;;;;;;6.87;5.60;;;;;;;9.27;100.00;97904.19;5073267;28;20222;-61
2022/04/13 04:25:21;;;;;;;6.53;5.63;;;;;;;9.26;100.00;97906.00;5073340;28;20208;-61
2022/04/13 04:27:48;;;;;;;7.33;5.90;;;;;;;9.24;100.00;97907.06;5073100;28;20213;-61
2022/04/13 04:30:14;;;;;;;8.63;5.80;;;;;;;9.17;100.00;97906.59;5073360;28;20219;-61
2022/04/13 04:32:42;;;;;;;8.27;5.47;;;;;;;9.17;100.00;97911.06;5073041;28;20235;-61
2022/04/13 04:35:10;;;;;;;6.93;5.70;;;;;;;9.20;100.00;97910.84;5073188;28;20218;-61
2022/04/13 04:37:36;;;;;;;6.67;5.43;;;;;;;9.21;100.00;97909.88;5073028;28;20221;-62
2022/04/13 04:40:03;;;;;;;6.90;5.70;;;;;;;9.20;100.00;97906.41;5071555;28;20211;-61
2022/04/13 04:42:30;;;;;;;7.90;5.40;;;;;;;9.21;100.00;97912.53;5072922;28;20255;-61
2022/04/13 04:44:57;;;;;;;6.70;5.20;;;;;;;9.16;100.00;97909.34;5073082;28;20219;-61
2022/04/13 04:47:24;;;;;;;7.33;5.37;;;;;;;9.10;100.00;97912.38;5062480;28;20276;-61
2022/04/13 04:49:52;;;;;;;7.37;5.57;;;;;;;9.09;100.00;97908.06;5073147;28;20222;-61
2022/04/13 04:52:19;;;;;;;7.47;5.20;;;;;;;9.12;100.00;97907.88;5072902;28;20244;-62
2022/04/13 04:54:46;;;;;;;7.13;5.57;;;;;;;9.11;100.00;97912.28;5072929;28;20604;-61
2022/04/13 04:57:12;;;;;;;8.37;5.50;;;;;;;9.05;100.00;97917.97;5062327;28;20218;-61
2022/04/13 04:59:39;;;;;;;7.60;5.50;;;;;;;9.10;100.00;97920.28;5072966;28;20218;-62
2022/04/13 05:02:05;;;;;;;5.87;4.97;;;;;;;9.09;100.00;97921.25;5072874;28;20223;-61
2022/04/13 05:04:32;;;;;;;7.13;5.77;;;;;;;9.06;100.00;97924.09;5072274;28;20211;-61
2022/04/13 05:07:00;;;;;;;8.00;5.90;;;;;;;9.09;100.00;97919.47;5072006;28;20679;-61
2022/04/13 05:09:28;;;;;;;7.20;5.20;;;;;;;9.16;100.00;97925.16;5072624;28;20222;-61
2022/04/13 05:11:54;;;;;;;7.87;5.60;;;;;;;9.23;100.00;97921.19;5072943;28;20295;-61
2022/04/13 05:14:21;;;;;;;7.37;5.20;;;;;;;9.35;100.00;97936.16;5068693;28;20235;-61
2022/04/13 05:16:48;;;;;;;8.13;5.90;;;;;;;9.43;100.00;97929.44;5076894;28;20216;-61
2022/04/13 05:19:15;;;;;;;6.07;5.27;;;;;;;9.49;100.00;97930.81;5076916;28;20214;-61
2022/04/13 05:21:41;;;;;;;6.60;5.63;;;;;;;9.53;100.00;97937.56;5077060;28;20249;-61
2022/04/13 05:24:10;;;;;;;8.23;5.73;;;;;;;9.63;100.00;97936.00;5076631;28;20213;-61
2022/04/13 05:26:37;;;;;;;6.83;5.67;;;;;;;9.69;100.00;97932.94;5076244;28;20216;-61
2022/04/13 05:29:03;;;;;;;7.73;5.40;;;;;;;9.76;100.00;97926.28;5076718;28;20218;-61
2022/04/13 05:31:30;;;;;;;6.13;4.90;;;;;;;9.85;100.00;97937.03;5074888;28;20218;-61
2022/04/13 05:33:56;;;;;;;7.10;5.30;;;;;;;9.93;100.00;97940.00;5076101;28;20313;-62
2022/04/13 05:36:23;;;;;;;6.97;5.57;;;;;;;10.01;100.00;97944.72;5076438;28;20222;-62
2022/04/13 05:38:49;;;;;;;7.07;5.40;;;;;;;10.11;100.00;97945.81;5076068;28;20325;-61
2022/04/13 05:41:17;;;;;;;6.30;5.63;;;;;;;10.19;100.00;97951.41;5076282;28;20242;-62
2022/04/13 05:43:43;;;;;;;6.77;5.10;;;;;;;10.31;100.00;97940.81;5070444;28;20223;-63
2022/04/13 05:46:10;;;;;;;6.13;5.17;;;;;;;10.44;100.00;97946.06;5075910;28;20215;-61
2022/04/13 05:48:36;;;;;;;7.80;6.23;;;;;;;10.59;100.00;97953.72;5075889;28;20214;-61
2022/04/13 05:51:03;;;;;;;8.17;6.30;;;;;;;10.73;100.00;97958.03;5075835;28;20673;-61
2022/04/13 05:53:29;;;;;;;8.60;6.40;;;;;;;10.79;100.00;97954.94;5075945;28;20243;-61
2022/04/13 05:55:56;;;;;;;8.03;6.33;;;;;;;10.89;100.00;97963.91;5074569;28;20218;-61
2022/04/13 05:58:26;;;;;;;7.27;5.93;;;;;;;11.02;100.00;97964.69;5060073;28;20212;-61
2022/04/13 06:00:53;;;;;;;9.00;6.00;;;;;;;11.17;100.00;97960.91;5061429;28;20215;-61
2022/04/13 06:03:21;;;;;;;8.90;6.57;;;;;;;11.31;100.00;97960.75;5061063;28;20212;-61
2022/04/13 06:05:47;;;;;;;7.63;5.40;;;;;;;11.49;99.42;97967.31;5063104;28;20572;-61
2022/04/13 06:08:15;;;;;;;6.93;5.30;;;;;;;11.63;97.72;97972.41;5075814;28;20219;-61
2022/04/13 06:10:41;;;;;;;6.77;5.17;;;;;;;11.78;97.15;97973.88;5075483;28;20642;-61
2022/04/13 06:13:08;;;;;;;11.43;5.83;;;;;;;11.94;96.01;97974.41;5075371;28;20233;-61
2022/04/13 06:15:36;;;;;;;10.40;6.20;;;;;;;12.05;95.06;97977.91;5075402;28;20222;-61
2022/04/13 06:18:03;;;;;;;6.87;5.10;;;;;;;12.15;94.36;97975.38;5075612;28;20231;-61
2022/04/13 06:20:29;;;;;;;6.53;5.50;;;;;;;12.30;93.90;97979.50;5075617;28;20218;-61
2022/04/13 06:22:55;;;;;;;7.97;5.50;;;;;;;12.43;92.49;97980.22;5073606;28;20218;-61
2022/04/13 06:25:22;;;;;;;5.57;4.70;;;;;;;12.54;92.64;97977.56;5075347;28;20216;-61
2022/04/13 06:27:49;;;;;;;7.90;5.63;;;;;;;12.65;91.72;97975.72;5074543;28;20707;-61
2022/04/13 06:30:15;;;;;;;6.30;5.33;;;;;;;12.80;91.08;97985.13;5072398;28;20221;-62
2022/04/13 06:32:45;;;;;;;6.73;5.43;;;;;;;12.91;90.94;97982.44;5075026;28;20227;-62
2022/04/13 06:35:15;;;;;;;7.87;5.50;;;;;;;13.06;90.81;97986.53;5075074;28;20262;-61
2022/04/13 06:37:43;;;;;;;6.33;5.40;;;;;;;13.18;90.06;97982.88;5075200;28;20211;-61
2022/04/13 06:40:11;;;;;;;6.70;5.10;;;;;;;13.32;89.45;97984.41;5075480;28;20216;-61
2022/04/13 06:42:39;;;;;;;6.17;5.13;;;;;;;13.45;88.68;97985.09;5075191;28;20226;-61
2022/04/13 06:45:08;;;;;;;6.87;5.03;;;;;;;13.59;88.24;97995.41;5075091;28;20223;-63
2022/04/13 06:47:34;;;;;;;6.50;4.70;;;;;;;13.71;87.91;97994.38;5074977;28;20270;-61
2022/04/13 06:50:03;;;;;;;9.13;4.77;;;;;;;13.86;86.96;97995.72;5073488;28;20212;-61
2022/04/13 06:52:32;;;;;;;5.17;4.67;;;;;;;13.96;86.44;97994.84;5075131;28;20227;-61
2022/04/13 06:54:59;;;;;;;9.60;5.67;;;;;;;14.10;85.72;97998.97;5074576;28;20242;-61
2022/04/13 06:57:25;;;;;;;6.80;4.57;;;;;;;14.21;85.29;97998.91;5074771;28;20224;-62
2022/04/13 06:59:52;;;;;;;9.67;5.17;;;;;;;14.33;84.56;97997.88;5075041;28;20219;-62
2022/04/13 07:02:18;;;;;;;7.13;5.40;;;;;;;14.45;84.33;97996.81;5074756;28;20592;-61
2022/04/13 07:04:45;;;;;;;6.33;5.37;;;;;;;14.57;83.22;98011.69;5074912;28;20216;-62
2022/04/13 07:07:14;;;;;;;7.97;5.53;;;;;;;14.69;82.71;98008.81;5074871;28;20217;-62
2022/04/13 07:09:40;;;;;;;7.37;6.00;;;;;;;14.81;81.40;98001.56;5074721;28;20252;-62
2022/04/13 07:12:07;;;;;;;5.83;4.97;;;;;;;14.90;81.11;98009.59;5074891;28;20214;-63
2022/04/13 07:14:34;;;;;;;6.80;5.00;;;;;;;15.00;80.38;98009.59;5074022;28;20238;-60
2022/04/13 07:17:00;;;;;;;8.27;5.13;;;;;;;15.09;79.34;98019.47;5073441;28;20226;-63
2022/04/13 07:19:27;;;;;;;6.90;5.83;;;;;;;15.17;78.91;98012.47;5074583;28;20222;-61
2022/04/13 07:21:53;;;;;;;6.20;4.90;;;;;;;15.27;79.34;98007.16;5074518;28;20219;-61
2022/04/13 07:24:21;;;;;;;8.60;5.63;;;;;;;15.36;79.63;98006.34;5074267;28;20237;-60
2022/04/13 07:26:47;;;;;;;7.90;5.80;;;;;;;15.45;79.84;98006.34;5074282;28;20214;-61
2022/04/13 07:29:14;;;;;;;6.50;5.40;;;;;;;15.53;77.12;98008.34;5074550;28;20217;-60
2022/04/13 07:31:40;;;;;;;7.90;5.70;;;;;;;15.50;75.68;98004.13;5074414;28;20215;-60
2022/04/13 07:34:07;;;;;;;7.87;5.10;;;;;;;15.61;74.93;98005.81;5074169;28;20242;-60
2022/04/13 07:36:34;;;;;;;5.80;4.97;;;;;;;15.78;74.94;98015.75;5074188;28;20568;-60
2022/04/13 07:39:01;;;;;;;5.80;4.80;;;;;;;15.93;75.49;98017.84;5074090;28;20569;-60
2022/04/13 07:41:29;;;;;;;7.97;4.77;;;;;;;16.06;74.70;98015.72;5072442;28;20278;-60
2022/04/13 07:43:57;;;;;;;7.60;4.70;;;;;;;16.21;74.44;98017.00;5072798;28;20233;-61
2022/04/13 07:46:25;;;;;;;6.23;4.70;;;;;;;16.33;72.77;98021.16;5073970;28;20246;-60
2022/04/13 07:48:52;;;;;;;5.20;4.40;;;;;;;16.45;72.82;98020.88;5073637;28;20699;-60
2022/04/13 07:51:18;;;;;;;7.27;4.50;;;;;;;16.57;72.21;98014.38;5073848;28;20229;-59
2022/04/13 07:53:45;;;;;;;5.80;4.60;;;;;;;16.71;72.78;98021.91;5062943;28;20219;-59
2022/04/13 07:56:11;;;;;;;6.87;5.47;;;;;;;16.88;71.50;98018.47;5059101;28;20226;-60
2022/04/13 07:58:39;;;;;;;6.30;4.87;;;;;;;16.96;69.42;98018.56;5059403;28;20608;-61
2022/04/13 08:01:06;;;;;;;6.30;4.80;;;;;;;17.04;70.20;98026.69;5060514;28;20220;-61
2022/04/13 08:03:32;;;;;;;6.97;4.97;;;;;;;17.10;68.57;98028.75;5062949;28;20225;-61
2022/04/13 08:05:59;;;;;;;7.40;5.20;;;;;;;17.20;67.58;98029.53;5058900;28;20751;-60
2022/04/13 08:08:25;;;;;;;5.20;4.70;;;;;;;17.29;66.78;98033.97;5057246;28;20215;-60
2022/04/13 08:10:52;;;;;;;7.37;4.93;;;;;;;17.44;66.56;98031.69;5059719;28;20219;-60
2022/04/13 08:13:18;;;;;;;5.53;4.73;;;;;;;17.50;66.98;98033.75;5062938;28;20581;-60
2022/04/13 08:15:46;;;;;;;6.43;4.47;;;;;;;17.66;67.97;98032.06;5059432;28;20246;-59
2022/04/13 08:18:12;;;;;;;4.70;4.17;;;;;;;17.71;65.61;98031.59;5059014;28;20586;-60
2022/04/13 08:20:39;;;;;;;5.40;4.43;;;;;;;17.79;65.17;98032.53;5059354;28;20583;-61
2022/04/13 08:23:05;;;;;;;7.00;4.53;;;;;;;17.87;63.93;98035.28;5064815;28;20215;-61
2022/04/13 08:25:32;;;;;;;6.10;5.23;;;;;;;17.94;67.72;98036.34;5073359;28;20212;-60
2022/04/13 08:27:58;;;;;;;6.03;4.80;;;;;;;18.00;67.99;98045.59;5073223;28;20215;-61
2022/04/13 08:30:26;;;;;;;6.87;5.53;;;;;;;18.05;68.36;98044.13;5073343;28;20577;-60
2022/04/13 08:32:53;;;;;;;6.53;5.23;;;;;;;18.11;67.43;98043.50;5066111;28;20648;-60
2022/04/13 08:35:20;;;;;;;5.30;4.50;;;;;;;18.11;66.59;98053.38;5073265;28;20235;-61
2022/04/13 08:37:46;;;;;;;6.67;4.50;;;;;;;18.19;64.49;98040.91;5073024;28;20211;-59
2022/04/13 08:40:13;;;;;;;5.83;4.20;;;;;;;18.30;61.73;98048.66;5073028;28;20215;-60
2022/04/13 08:42:50;;;;;;;5.13;4.60;;;;;;;18.34;63.81;98052.75;5073168;28;20268;-60
2022/04/13 08:45:28;;;;;;;5.10;4.30;;;;;;;18.42;64.16;98055.47;5072831;28;20704;-61
2022/04/13 08:47:59;;;;;;;7.03;4.97;;;;;;;18.53;64.58;98049.88;5073162;28;20260;-61
2022/04/13 08:50:28;;;;;;;4.97;4.17;;;;;;;18.67;63.44;98052.00;5072513;28;20590;-60
2022/04/13 08:52:58;;;;;;;5.13;4.13;;;;;;;18.74;62.24;98047.69;5073070;28;20272;-60
2022/04/13 08:55:24;;;;;;;6.20;4.67;;;;;;;18.82;61.18;98055.75;5072944;28;20235;-62
2022/04/13 08:57:57;;;;;;;6.33;4.20;;;;;;;18.90;58.50;98047.75;5072747;28;20255;-60
2022/04/13 09:00:28;;;;;;;4.97;4.30;;;;;;;18.97;59.26;98051.47;5060203;28;20219;-60
2022/04/13 09:03:22;;;;;;;5.83;4.33;;;;;;;19.12;60.34;98047.19;5072976;28;20288;-60
2022/04/13 09:05:51;;;;;;;6.50;4.90;;;;;;;19.35;62.41;98050.16;5073064;28;20222;-59
2022/04/13 09:08:21;;;;;;;5.87;4.20;;;;;;;19.41;61.90;98050.38;5067442;28;20215;-60
2022/04/13 09:10:50;;;;;;;5.60;4.13;;;;;;;19.59;61.71;98040.38;5072878;28;20216;-61
2022/04/13 09:13:17;;;;;;;4.90;4.00;;;;;;;19.73;63.65;98042.41;5072559;28;20215;-61
2022/04/13 09:15:43;;;;;;;5.30;3.87;;;;;;;19.86;60.82;98048.13;5072699;28;20274;-61
2022/04/13 09:18:11;;;;;;;9.27;4.10;;;;;;;19.96;59.32;98048.81;5072437;28;20215;-61
2022/04/13 09:20:39;;;;;;;4.23;3.83;;;;;;;20.08;58.42;98042.13;5072487;28;20216;-61
2022/04/13 09:23:07;;;;;;;6.03;3.63;;;;;;;20.16;55.70;98054.69;5072484;28;20203;-61
2022/04/13 09:25:36;;;;;;;5.10;3.67;;;;;;;20.20;54.35;98046.16;5070776;28;20242;-61
2022/04/13 09:28:03;;;;;;;6.10;4.33;;;;;;;20.29;55.95;98042.47;5072340;28;20220;-61
2022/04/13 09:30:33;;;;;;;5.73;3.87;;;;;;;20.33;53.76;98046.50;5072692;28;20216;-61
2022/04/13 09:33:02;;;;;;;4.87;4.20;;;;;;;20.37;55.37;98041.63;5072666;28;20207;-61
2022/04/13 09:35:31;;;;;;;6.37;3.77;;;;;;;20.44;54.18;98050.69;5072651;28;20634;-61
2022/04/13 09:38:01;;;;;;;5.00;3.70;;;;;;;20.49;54.27;98046.47;5072643;28;20234;-60
2022/04/13 09:40:31;;;;;;;5.27;3.47;;;;;;;20.61;48.74;98042.41;5062365;28;20557;-61
2022/04/13 09:43:08;;;;;;;5.60;3.80;;;;;;;20.53;51.22;98046.97;5072322;28;20254;-61
2022/04/13 09:45:37;;;;;;;6.57;3.83;;;;;;;20.68;52.64;98050.66;5072185;28;20212;-61
2022/04/13 09:48:08;;;;;;;4.40;3.80;;;;;;;20.66;49.98;98044.63;5072211;28;20266;-61
2022/04/13 09:50:35;;;;;;;8.40;4.10;;;;;;;20.73;53.86;98046.44;5071902;28;20228;-61
2022/04/13 09:53:05;;;;;;;5.67;4.40;;;;;;;20.81;54.25;98050.94;5071607;28;20300;-60
2022/04/13 09:55:34;;;;;;;4.30;3.80;;;;;;;20.83;55.19;98046.22;5067158;28;20247;-60
2022/04/13 09:58:09;;;;;;;6.33;4.50;;;;;;;20.92;55.19;98047.94;5072117;28;20237;-61
2022/04/13 10:00:36;;;;;;;5.47;3.73;;;;;;;20.95;53.33;98048.44;5072504;28;20210;-62
2022/04/13 10:03:11;;;;;;;5.50;3.97;;;;;;;20.98;51.25;98042.69;5075612;28;20224;-61
2022/04/13 10:05:38;;;;;;;8.47;4.00;;;;;;;20.95;49.89;98047.56;5075887;28;20583;-61
2022/04/13 10:08:08;;;;;;;6.23;3.70;;;;;;;20.94;54.46;98045.91;5076079;28;20211;-61
2022/04/13 10:10:34;;;;;;;5.07;3.70;;;;;;;20.95;50.73;98036.81;5075569;28;20225;-61
2022/04/13 10:13:01;;;;;;;5.47;3.63;;;;;;;20.96;50.39;98039.34;5075478;28;20694;-61
2022/04/13 10:15:28;;;;;;;3.97;2.97;;;;;;;20.98;47.49;98026.56;5072738;28;20749;-61
2022/04/13 10:17:59;;;;;;;3.30;2.60;;;;;;;20.95;45.57;98032.31;5074269;28;20342;-61
2022/04/13 10:20:29;;;;;;;4.77;2.73;;;;;;;21.09;44.21;98028.06;5075807;28;20230;-62
2022/04/13 10:22:59;;;;;;;5.37;2.60;;;;;;;21.21;43.43;98030.19;5075569;28;20207;-62
2022/04/13 10:25:28;;;;;;;4.43;2.63;;;;;;;21.29;43.96;98032.84;5075614;28;20304;-62
2022/04/13 10:27:55;;;;;;;2.83;2.37;;;;;;;21.23;44.58;98033.56;5075698;28;20215;-62
2022/04/13 10:30:27;;;;;;;4.43;2.63;;;;;;;21.19;43.56;98028.69;5075633;28;20261;-61
2022/04/13 10:33:01;;;;;;;3.90;2.20;;;;;;;21.21;43.99;98022.13;5070283;28;20246;-61
2022/04/13 10:35:30;;;;;;;4.23;2.50;;;;;;;21.17;42.89;98028.88;5064138;28;20719;-61
2022/04/13 10:37:57;;;;;;;3.70;2.20;;;;;;;21.11;42.47;98028.72;5075409;28;20211;-61
2022/04/13 10:40:25;;;;;;;3.90;2.10;;;;;;;21.16;39.63;98035.25;5074959;28;20211;-61
2022/04/13 10:42:54;;;;;;;2.73;1.87;;;;;;;21.27;39.02;98032.19;5073656;28;20593;-61
2022/04/13 10:45:20;;;;;;;4.20;2.40;;;;;;;21.33;39.88;98025.28;5064515;28;20223;-61
2022/04/13 10:47:56;;;;;;;4.93;1.90;;;;;;;21.52;38.92;98028.34;5075098;28;20211;-61
2022/04/13 10:50:30;;;;;;;4.07;2.20;;;;;;;21.57;38.21;98028.66;5075207;28;20573;-61
2022/04/13 10:52:59;;;;;;;3.67;2.27;;;;;;;21.52;40.36;98028.34;5075187;28;20623;-61
2022/04/13 10:55:29;;;;;;;3.57;1.80;;;;;;;21.62;38.91;98025.44;5074793;28;20246;-61
2022/04/13 10:58:03;;;;;;;4.37;2.23;;;;;;;21.76;40.12;98030.94;5074876;28;20219;-61
2022/04/13 11:00:32;;;;;;;3.30;1.97;;;;;;;21.64;38.72;98034.19;5063853;28;20221;-61
2022/04/13 11:03:03;;;;;;;2.80;2.00;;;;;;;21.74;39.03;98027.59;5075147;28;20211;-61
2022/04/13 11:05:30;;;;;;;4.33;1.80;;;;;;;21.69;38.74;98029.97;5074685;28;20272;-62
2022/04/13 11:08:10;;;;;;;4.17;2.07;;;;;;;21.86;38.54;98020.78;5074820;28;20221;-62
2022/04/13 11:10:38;;;;;;;3.57;1.70;;;;;;;21.99;36.75;98023.72;5073151;28;20222;-60
2022/04/13 11:13:06;;;;;;;5.67;1.57;;;;;;;21.95;36.18;98011.63;5074526;28;20219;-61
2022/04/13 11:15:44;;;;;;;4.67;1.60;;;;;;;21.79;35.41;98019.81;5074411;28;20317;-61
2022/04/13 11:18:11;;;;;;;2.57;1.47;;;;;;;21.77;35.94;98016.44;5069654;28;20746;-62
2022/04/13 11:20:59;;;;;;;3.20;1.50;;;;;;;21.85;36.77;98024.50;5074405;28;20223;-62
2022/04/13 11:23:46;;;;;;;4.83;1.70;;;;;;;21.96;38.75;98020.53;5074203;28;20237;-61
2022/04/13 11:26:13;;;;;;;2.93;1.57;;;;;;;22.12;37.49;98023.94;5071472;28;20222;-61
2022/04/13 11:28:41;;;;;;;3.13;1.80;;;;;;;22.02;37.89;98012.59;5069757;28;20238;-61
2022/04/13 11:31:09;;;;;;;3.93;1.97;;;;;;;22.09;39.28;98021.63;5068361;28;20219;-61
2022/04/13 11:33:51;;;;;;;4.00;1.80;;;;;;;22.17;38.89;98021.53;5073971;28;20231;-62